Aérodrome :
LOGIN :

S'inscrire | Disclaimer

   EN    FR    IT 

 










Légende :    VFR   VFR Marginal   IFR   IFR Intensif   IFR Très Intensif
Visi : 
Plafond : 
>= 8 km
>= 3000ft
5 à 8 km
1000 à 3000 ft
1500m à 5 km
500 à 1000 ft
800 à 1500m
200 à 500 ft
< 800m
< 200 ft
Symboles :   Orages  Brouillard  Fortes neiges  Fortes précipitations  Vent > 20 kt
SIGMETs :   Divers  Orages  Givrage  Turbulence  Onde Orograph.  Cendres Volcan.






- Altitude de l'aérodrome : 56 ft
- Code IATA : ILY


EGPI - Islay

DERNIER METAR :
  • 090020Z AUTO 24015KT 9999 -RA OVC009/// 10/09 Q0987

METARs EXPIRÉS :
  • 082350Z AUTO 25018KT 9999 -RA OVC009/// 10/09 Q0987
  • 082320Z AUTO 24020G30KT 9999 -RA OVC009/// 10/09 Q0987
  • 082250Z AUTO 22015KT 9999 -RADZ OVC006/// 10/10 Q0987 RERA REDZ
  • 082220Z AUTO 21014KT 2400 DZ OVC005/// 10/09 Q0986
  • 082150Z AUTO 21015KT 3200 -DZ OVC006/// 10/09 Q0986
  • 082120Z AUTO 21014KT 8000 -RA OVC006/// 10/09 Q0986
  • 082050Z AUTO 20016G26KT 9999 -RA OVC006/// 10/09 Q0986
  • 082020Z AUTO 18014KT 8000 RA OVC006/// 10/09 Q0986 RERA
  • 081950Z AUTO 17015KT 2900 +RA OVC007/// 10/09 Q0987

Prévision TAF périmée.



MET'MAP, la Météo Aéronautique d'un coup d'oeil ! - Copyright ORBIFLY Décembre 2007 - Disclaimer

ORBIFLY MET'MAP TEAM :

Programmation & Développement : Alexandra Zaïnal
Sur une idée originale de : Baudouin d'Aumeries
Soutien technique & logistique : Manuel Goepfert
Assistance : Marc-Olivier Méhu




SOURCES & CREDITS :

   NOAA